Time;durP1;ratioP1;P1;durP2;ratioP2;P2;SDS_P1;SDS_P2;PMS_P1;PMS_P2;Temp;Humidity;BMP_temperature;BMP_pressure;BME280_temperature;BME280_humidity;BME280_pressure;Samples;Min_cycle;Max_cycle;Signal;HPM_P1;HPM_P2
2024/04/08 00:01:44;;;;;;;5.88;1.83;;;15.20;99.90;;;;;;5490156;26;20030;-79
2024/04/08 00:04:10;;;;;;;7.90;2.53;;;15.20;99.90;;;;;;5488803;26;20070;-79
2024/04/08 00:06:36;;;;;;;6.05;2.30;;;15.20;99.90;;;;;;5489686;26;20008;-79
2024/04/08 00:09:03;;;;;;;5.97;2.28;;;15.10;99.90;;;;;;5488617;26;20004;-79
2024/04/08 00:11:29;;;;;;;4.38;1.83;;;15.10;99.90;;;;;;5487722;26;20070;-79
2024/04/08 00:13:54;;;;;;;5.80;2.03;;;15.20;99.90;;;;;;5488603;26;20485;-79
2024/04/08 00:16:20;;;;;;;7.07;2.20;;;15.10;99.90;;;;;;5489161;26;20463;-79
2024/04/08 00:18:46;;;;;;;4.25;2.08;;;15.10;99.90;;;;;;5489757;26;19994;-80
2024/04/08 00:21:11;;;;;;;7.30;2.10;;;15.00;99.90;;;;;;5488569;26;20026;-79
2024/04/08 00:23:37;;;;;;;5.85;2.30;;;14.90;99.90;;;;;;5489794;26;20005;-79
2024/04/08 00:26:06;;;;;;;5.07;2.25;;;14.90;99.90;;;;;;5488510;26;20475;-81
2024/04/08 00:28:33;;;;;;;6.28;2.33;;;14.80;99.90;;;;;;5489519;26;19998;-80
2024/04/08 00:31:10;;;;;;;9.18;2.28;;;14.80;99.90;;;;;;5488217;26;19994;-80
2024/04/08 00:33:36;;;;;;;4.20;2.03;;;14.70;99.90;;;;;;5489640;26;20149;-79
2024/04/08 00:36:04;;;;;;;6.05;2.20;;;14.70;99.90;;;;;;5487912;26;20532;-80
2024/04/08 00:38:30;;;;;;;5.35;2.25;;;14.70;99.90;;;;;;5488136;26;20008;-79
2024/04/08 00:40:58;;;;;;;6.53;2.28;;;14.60;99.90;;;;;;5488524;26;20008;-80
2024/04/08 00:43:24;;;;;;;7.57;2.45;;;14.60;99.90;;;;;;5489640;26;20328;-80
2024/04/08 00:45:50;;;;;;;6.63;2.30;;;14.50;99.90;;;;;;5487920;26;20005;-80
2024/04/08 00:48:17;;;;;;;5.90;2.10;;;14.50;99.90;;;;;;5489296;26;19990;-80
2024/04/08 00:50:46;;;;;;;6.53;2.45;;;14.50;99.90;;;;;;5486327;26;20066;-80
2024/04/08 00:53:13;;;;;;;6.38;2.10;;;14.50;99.90;;;;;;5489652;26;20009;-80
2024/04/08 00:55:41;;;;;;;4.47;1.95;;;14.50;99.90;;;;;;5488403;26;20053;-79
2024/04/08 00:58:07;;;;;;;4.65;1.90;;;14.50;99.90;;;;;;5486789;26;20026;-80
2024/04/08 01:00:33;;;;;;;8.05;2.58;;;14.50;99.90;;;;;;5488539;26;19994;-80
2024/04/08 01:03:02;;;;;;;4.53;1.83;;;14.40;99.90;;;;;;5488642;26;20106;-79
2024/04/08 01:05:28;;;;;;;5.28;1.88;;;14.40;99.90;;;;;;5489131;26;19998;-80
2024/04/08 01:07:54;;;;;;;2.60;1.50;;;14.30;99.90;;;;;;5488579;26;20321;-79
2024/04/08 01:10:20;;;;;;;5.78;2.25;;;14.30;99.90;;;;;;5487870;26;20004;-80
2024/04/08 01:12:46;;;;;;;4.47;1.80;;;14.30;99.90;;;;;;5488711;26;20009;-80
2024/04/08 01:15:12;;;;;;;4.13;1.80;;;14.20;99.90;;;;;;5488804;26;20051;-80
2024/04/08 01:17:38;;;;;;;2.90;1.73;;;14.20;99.90;;;;;;5488436;26;19994;-80
2024/04/08 01:20:05;;;;;;;5.63;1.58;;;14.30;99.90;;;;;;5488518;26;20002;-79
2024/04/08 01:22:32;;;;;;;5.65;1.88;;;14.20;99.90;;;;;;5488330;26;20029;-79
2024/04/08 01:24:58;;;;;;;5.63;1.90;;;14.30;99.90;;;;;;5488402;26;20009;-79
2024/04/08 01:27:23;;;;;;;5.25;1.80;;;14.30;99.90;;;;;;5488518;26;19998;-79
2024/04/08 01:29:49;;;;;;;4.50;1.65;;;14.20;99.90;;;;;;5487939;26;20005;-79
2024/04/08 01:32:15;;;;;;;4.82;1.98;;;14.20;99.90;;;;;;5487945;26;20009;-79
2024/04/08 01:34:40;;;;;;;5.88;1.92;;;14.20;99.90;;;;;;5487793;26;20062;-78
2024/04/08 01:37:06;;;;;;;5.05;1.50;;;14.30;99.90;;;;;;5488766;26;20005;-79
2024/04/08 01:39:31;;;;;;;4.72;1.90;;;14.30;99.90;;;;;;5487257;26;19994;-79
2024/04/08 01:41:57;;;;;;;6.63;1.90;;;14.30;99.90;;;;;;5488175;26;19994;-79
2024/04/08 01:44:23;;;;;;;8.02;1.90;;;14.40;99.90;;;;;;5487085;26;20005;-79
2024/04/08 01:46:48;;;;;;;3.35;1.42;;;14.40;99.90;;;;;;5488446;26;20125;-79
2024/04/08 01:49:14;;;;;;;4.13;2.20;;;14.40;99.90;;;;;;5487287;26;20843;-80
2024/04/08 01:51:39;;;;;;;7.10;2.13;;;14.40;99.90;;;;;;5488243;26;20457;-79
2024/04/08 01:54:05;;;;;;;4.93;1.77;;;14.40;99.90;;;;;;5487651;26;20066;-79
2024/04/08 01:56:31;;;;;;;6.68;1.90;;;14.50;99.90;;;;;;5486254;26;20404;-79
2024/04/08 01:58:57;;;;;;;4.60;1.75;;;14.50;99.90;;;;;;5487602;26;20066;-79
2024/04/08 02:01:23;;;;;;;4.70;2.00;;;14.40;99.90;;;;;;5487440;26;20075;-79
2024/04/08 02:03:48;;;;;;;6.65;2.10;;;14.40;99.90;;;;;;5487486;26;20117;-79
2024/04/08 02:06:14;;;;;;;5.43;2.15;;;14.30;99.90;;;;;;5487099;26;20045;-79
2024/04/08 02:08:39;;;;;;;5.55;1.88;;;14.40;99.90;;;;;;5487464;26;19994;-79
2024/04/08 02:11:05;;;;;;;4.18;1.80;;;14.40;99.90;;;;;;5487408;26;20005;-79
2024/04/08 02:13:31;;;;;;;5.43;2.00;;;14.40;99.90;;;;;;5487028;26;20009;-82
2024/04/08 02:16:07;;;;;;;5.15;1.98;;;14.40;99.90;;;;;;5487436;26;20111;-79
2024/04/08 02:18:33;;;;;;;6.63;2.10;;;14.40;99.90;;;;;;5487575;26;20466;-79
2024/04/08 02:20:59;;;;;;;5.82;1.92;;;14.40;99.90;;;;;;5487714;26;20009;-79
2024/04/08 02:23:25;;;;;;;4.05;1.80;;;14.40;99.90;;;;;;5491838;26;20339;-79
2024/04/08 02:25:51;;;;;;;4.47;2.03;;;14.30;99.90;;;;;;5490167;26;19994;-79
2024/04/08 02:28:16;;;;;;;5.35;2.40;;;14.30;99.90;;;;;;5491042;26;20066;-79
2024/04/08 02:30:42;;;;;;;6.68;2.55;;;14.30;99.90;;;;;;5490120;26;19999;-79
2024/04/08 02:33:07;;;;;;;5.00;1.98;;;14.30;99.90;;;;;;5491327;26;20022;-79
2024/04/08 02:35:37;;;;;;;5.68;2.30;;;14.30;99.90;;;;;;5489986;26;19994;-79
2024/04/08 02:38:06;;;;;;;4.65;1.90;;;14.40;99.90;;;;;;5491932;26;20005;-79
2024/04/08 02:40:32;;;;;;;5.78;2.30;;;14.40;99.90;;;;;;5489900;26;20017;-79
2024/04/08 02:42:59;;;;;;;5.80;2.50;;;14.40;99.90;;;;;;5491818;26;19998;-78
2024/04/08 02:45:25;;;;;;;7.72;2.72;;;14.30;99.90;;;;;;5489670;26;20057;-79
2024/04/08 02:47:51;;;;;;;5.07;2.22;;;14.30;99.90;;;;;;5491848;26;20044;-78
2024/04/08 02:50:16;;;;;;;4.50;2.50;;;14.30;99.90;;;;;;5489952;26;20656;-79
2024/04/08 02:52:42;;;;;;;6.38;2.20;;;14.30;99.90;;;;;;5491295;26;19990;-79
2024/04/08 02:55:08;;;;;;;5.22;2.05;;;14.30;99.90;;;;;;5489902;26;19998;-79
2024/04/08 02:57:33;;;;;;;4.72;2.10;;;14.30;99.90;;;;;;5489966;26;20084;-79
2024/04/08 02:59:59;;;;;;;5.68;2.30;;;14.30;99.90;;;;;;5490017;26;19997;-79
2024/04/08 03:02:25;;;;;;;2.97;2.00;;;14.40;99.90;;;;;;5490556;26;19998;-79
2024/04/08 03:04:53;;;;;;;7.10;2.70;;;14.40;99.90;;;;;;5489933;26;20005;-79
2024/04/08 03:07:19;;;;;;;4.88;2.30;;;14.40;99.90;;;;;;5490654;26;20005;-79
2024/04/08 03:09:51;;;;;;;4.93;2.80;;;14.40;99.90;;;;;;5490828;26;19994;-79
2024/04/08 03:12:18;;;;;;;5.95;2.80;;;14.40;99.90;;;;;;5490698;26;19998;-79
2024/04/08 03:14:43;;;;;;;5.65;2.85;;;14.40;99.90;;;;;;5488538;26;19998;-79
2024/04/08 03:17:09;;;;;;;7.65;2.60;;;14.40;99.90;;;;;;5490164;26;20005;-79
2024/04/08 03:19:34;;;;;;;8.48;2.95;;;14.40;99.90;;;;;;5489796;26;20006;-79
2024/04/08 03:22:00;;;;;;;5.28;2.72;;;14.40;99.90;;;;;;5490634;26;20005;-80
2024/04/08 03:24:29;;;;;;;8.48;3.38;;;14.40;99.90;;;;;;5491208;26;20010;-80
2024/04/08 03:26:54;;;;;;;5.15;3.03;;;14.40;99.90;;;;;;5490379;26;19994;-79
2024/04/08 03:29:20;;;;;;;7.65;3.00;;;14.40;99.90;;;;;;5488852;26;20067;-80
2024/04/08 03:31:46;;;;;;;6.50;2.63;;;14.40;99.90;;;;;;5486992;26;20008;-80
2024/04/08 03:34:12;;;;;;;9.02;3.08;;;14.40;99.90;;;;;;5490687;26;20004;-79
2024/04/08 03:36:38;;;;;;;5.18;2.50;;;14.40;99.90;;;;;;5489305;26;19998;-80
2024/04/08 03:39:07;;;;;;;4.82;2.97;;;14.40;99.90;;;;;;5489979;26;20034;-80
2024/04/08 03:41:32;;;;;;;6.10;2.90;;;14.40;99.90;;;;;;5489520;26;19998;-81
2024/04/08 03:43:58;;;;;;;7.00;3.05;;;14.30;99.90;;;;;;5489947;26;19994;-80
2024/04/08 03:46:23;;;;;;;6.05;3.28;;;14.30;99.90;;;;;;5490024;26;20501;-80
2024/04/08 03:48:49;;;;;;;7.07;3.40;;;14.30;99.90;;;;;;5490209;26;19997;-80
2024/04/08 03:51:18;;;;;;;4.75;2.83;;;14.30;99.90;;;;;;5489710;26;19994;-80
2024/04/08 03:53:44;;;;;;;3.83;2.70;;;14.20;99.90;;;;;;5490579;26;20010;-80
2024/04/08 03:56:11;;;;;;;7.82;3.20;;;14.20;99.90;;;;;;5489228;26;19998;-80
2024/04/08 03:58:41;;;;;;;7.78;3.33;;;14.20;99.90;;;;;;5489537;26;20005;-80
2024/04/08 04:01:09;;;;;;;5.20;3.08;;;14.20;99.90;;;;;;5489952;26;20030;-80
2024/04/08 04:03:36;;;;;;;7.57;3.40;;;14.30;99.90;;;;;;5489814;26;20005;-80
2024/04/08 04:06:02;;;;;;;7.32;3.30;;;14.30;99.90;;;;;;5487677;26;20396;-79
2024/04/08 04:08:28;;;;;;;5.72;2.88;;;14.30;99.90;;;;;;5489996;26;19994;-79
2024/04/08 04:10:55;;;;;;;5.72;3.15;;;14.30;99.90;;;;;;5489238;26;19990;-79
2024/04/08 04:13:21;;;;;;;6.47;3.40;;;14.30;99.90;;;;;;5489790;26;19994;-79
2024/04/08 04:15:46;;;;;;;7.20;3.47;;;14.30;99.90;;;;;;5489271;26;19994;-79
2024/04/08 04:18:12;;;;;;;7.88;3.60;;;14.40;99.90;;;;;;5489670;26;20451;-80
2024/04/08 04:20:40;;;;;;;7.32;3.00;;;14.40;99.90;;;;;;5489264;26;20009;-79
2024/04/08 04:23:06;;;;;;;6.82;3.30;;;14.40;99.90;;;;;;5489417;26;19994;-77
2024/04/08 04:25:35;;;;;;;5.75;3.08;;;14.40;99.90;;;;;;5489025;26;20002;-76
2024/04/08 04:28:00;;;;;;;6.53;2.90;;;14.40;99.90;;;;;;5489934;26;19994;-79
2024/04/08 04:30:27;;;;;;;7.18;2.92;;;14.40;99.90;;;;;;5488531;26;20005;-79
2024/04/08 04:32:53;;;;;;;7.30;3.15;;;14.40;99.90;;;;;;5489296;26;19998;-79
2024/04/08 04:35:18;;;;;;;6.20;2.90;;;14.40;99.90;;;;;;5488305;26;19994;-79
2024/04/08 04:37:44;;;;;;;7.50;3.30;;;14.50;99.90;;;;;;5490056;26;19994;-79
2024/04/08 04:40:10;;;;;;;8.55;3.75;;;14.50;99.90;;;;;;5488129;26;20001;-79
2024/04/08 04:42:35;;;;;;;6.97;3.03;;;14.50;99.90;;;;;;5489077;26;20013;-79
2024/04/08 04:45:01;;;;;;;8.70;4.05;;;14.50;99.90;;;;;;5487066;26;20009;-79
2024/04/08 04:47:27;;;;;;;7.80;3.00;;;14.50;99.90;;;;;;5490489;26;20009;-79
2024/04/08 04:49:52;;;;;;;5.32;3.00;;;14.50;99.90;;;;;;5488277;26;19994;-79
2024/04/08 04:52:18;;;;;;;6.30;3.42;;;14.50;99.90;;;;;;5490057;26;19994;-80
2024/04/08 04:54:44;;;;;;;5.78;3.55;;;14.50;99.90;;;;;;5488480;26;20467;-80
2024/04/08 04:57:09;;;;;;;7.00;3.40;;;14.40;99.90;;;;;;5488846;26;19994;-80
2024/04/08 04:59:35;;;;;;;8.98;3.45;;;14.30;99.90;;;;;;5488693;26;20444;-79
2024/04/08 05:02:00;;;;;;;7.28;3.22;;;14.30;99.90;;;;;;5488965;26;20010;-80
2024/04/08 05:04:26;;;;;;;6.47;3.83;;;14.30;99.90;;;;;;5488718;26;20029;-77
2024/04/08 05:06:52;;;;;;;7.80;3.47;;;14.20;99.90;;;;;;5488093;26;19994;-76
2024/04/08 05:09:17;;;;;;;8.82;4.07;;;14.20;99.90;;;;;;5489499;26;20020;-76
2024/04/08 05:11:43;;;;;;;8.10;3.72;;;14.10;99.90;;;;;;5488261;26;20393;-79
2024/04/08 05:14:08;;;;;;;8.05;3.83;;;14.20;99.90;;;;;;5489455;26;19994;-79
2024/04/08 05:16:34;;;;;;;7.30;3.80;;;14.20;99.90;;;;;;5487925;26;19994;-79
2024/04/08 05:19:00;;;;;;;8.18;3.45;;;14.20;99.90;;;;;;5489700;26;20326;-79
2024/04/08 05:21:25;;;;;;;8.02;3.40;;;14.20;99.90;;;;;;5488002;26;20343;-79
2024/04/08 05:23:51;;;;;;;8.07;3.50;;;14.20;99.90;;;;;;5489050;26;19994;-79
2024/04/08 05:26:17;;;;;;;6.07;3.60;;;14.20;99.90;;;;;;5487494;26;19998;-79
2024/04/08 05:28:43;;;;;;;10.70;4.50;;;14.20;99.90;;;;;;5487260;26;20404;-79
2024/04/08 05:31:09;;;;;;;6.65;4.15;;;14.20;99.90;;;;;;5487363;26;20454;-79
2024/04/08 05:33:34;;;;;;;7.13;4.18;;;14.30;99.90;;;;;;5489077;26;20005;-79
2024/04/08 05:36:00;;;;;;;7.90;4.05;;;14.30;99.90;;;;;;5487300;26;20098;-79
2024/04/08 05:38:25;;;;;;;9.13;4.45;;;14.30;99.90;;;;;;5488494;26;19998;-79
2024/04/08 05:40:51;;;;;;;8.40;4.30;;;14.20;99.90;;;;;;5488312;26;20004;-79
2024/04/08 05:43:19;;;;;;;9.75;4.53;;;14.10;99.90;;;;;;5488511;26;20447;-79
2024/04/08 05:45:47;;;;;;;9.65;4.88;;;14.10;99.90;;;;;;5487463;26;19994;-79
2024/04/08 05:48:14;;;;;;;9.30;4.78;;;14.10;99.90;;;;;;5487937;26;20004;-79
2024/04/08 05:50:40;;;;;;;9.05;4.72;;;14.10;99.90;;;;;;5487838;26;20005;-79
2024/04/08 05:53:06;;;;;;;9.68;4.90;;;14.10;99.90;;;;;;5488015;26;19998;-79
2024/04/08 05:55:32;;;;;;;9.07;4.75;;;14.20;99.90;;;;;;5487686;26;20010;-79
2024/04/08 05:57:58;;;;;;;9.18;5.07;;;14.10;99.90;;;;;;5488048;26;19998;-79
2024/04/08 06:00:24;;;;;;;9.43;4.20;;;14.20;99.90;;;;;;5485430;26;19990;-79
2024/04/08 06:02:52;;;;;;;7.55;3.67;;;14.10;99.90;;;;;;5488053;26;20034;-79
2024/04/08 06:05:23;;;;;;;8.48;3.60;;;14.10;99.90;;;;;;5487765;26;20010;-79
2024/04/08 06:07:49;;;;;;;6.00;3.45;;;14.10;99.90;;;;;;5487799;26;20006;-79
2024/04/08 06:10:30;;;;;;;8.38;3.67;;;14.10;99.90;;;;;;5487579;26;20053;-78
2024/04/08 06:12:56;;;;;;;8.68;3.20;;;14.10;99.90;;;;;;5487989;26;19994;-79
2024/04/08 06:15:22;;;;;;;6.82;3.08;;;14.10;99.90;;;;;;5487965;26;20008;-79
2024/04/08 06:17:48;;;;;;;6.25;3.40;;;14.10;99.90;;;;;;5487462;26;19994;-79
2024/04/08 06:20:13;;;;;;;6.72;3.50;;;14.10;99.90;;;;;;5487312;26;20070;-78
2024/04/08 06:22:39;;;;;;;9.85;4.15;;;14.20;99.90;;;;;;5487551;26;19998;-79
2024/04/08 06:25:09;;;;;;;6.90;3.60;;;14.30;99.90;;;;;;5487110;26;20459;-79
2024/04/08 06:27:35;;;;;;;6.68;3.55;;;14.30;99.90;;;;;;5487950;26;20005;-79
2024/04/08 06:30:02;;;;;;;5.43;3.50;;;14.40;99.90;;;;;;5487071;26;20118;-79
2024/04/08 06:32:27;;;;;;;8.90;3.35;;;14.40;99.90;;;;;;5488148;26;20066;-79
2024/04/08 06:34:53;;;;;;;9.48;3.40;;;14.40;99.90;;;;;;5487512;26;20006;-79
2024/04/08 06:37:20;;;;;;;7.25;3.60;;;14.50;99.90;;;;;;5487139;26;19998;-79
2024/04/08 06:39:46;;;;;;;8.07;3.45;;;14.40;99.90;;;;;;5487056;26;20005;-79
2024/04/08 06:42:19;;;;;;;6.50;3.60;;;14.40;99.90;;;;;;5486244;26;19998;-79
2024/04/08 06:44:51;;;;;;;7.63;3.80;;;14.40;99.90;;;;;;5487054;26;20475;-79
2024/04/08 06:47:18;;;;;;;6.70;3.67;;;14.50;99.90;;;;;;5486918;26;20001;-79
2024/04/08 06:49:44;;;;;;;7.35;4.20;;;14.60;99.90;;;;;;5485291;26;20002;-79
2024/04/08 06:52:10;;;;;;;8.55;4.18;;;14.70;99.90;;;;;;5486153;26;20002;-79
2024/04/08 06:54:35;;;;;;;7.47;4.15;;;14.70;99.90;;;;;;5486514;26;20062;-79
2024/04/08 06:57:01;;;;;;;7.18;4.00;;;14.70;99.90;;;;;;5485939;26;19998;-79
2024/04/08 06:59:28;;;;;;;9.50;3.83;;;14.80;99.90;;;;;;5486222;26;20005;-79
2024/04/08 07:01:54;;;;;;;8.70;3.95;;;14.80;99.90;;;;;;5485865;26;20018;-79
2024/04/08 07:04:21;;;;;;;10.07;4.20;;;14.80;99.90;;;;;;5486570;26;19998;-79
2024/04/08 07:06:46;;;;;;;8.20;4.30;;;14.70;99.90;;;;;;5486892;26;20030;-78
2024/04/08 07:09:12;;;;;;;8.38;4.32;;;14.70;99.90;;;;;;5490515;26;19994;-79
2024/04/08 07:11:38;;;;;;;8.82;4.97;;;14.70;99.90;;;;;;5489724;26;19998;-79
2024/04/08 07:14:03;;;;;;;8.93;4.95;;;14.70;99.90;;;;;;5489073;26;20320;-79
2024/04/08 07:16:29;;;;;;;7.05;4.35;;;14.70;99.90;;;;;;5489316;26;20006;-79
2024/04/08 07:18:55;;;;;;;9.70;4.75;;;14.70;99.90;;;;;;5491030;26;20000;-79
2024/04/08 07:21:24;;;;;;;7.63;4.47;;;14.70;99.90;;;;;;5489233;26;20076;-78
2024/04/08 07:23:51;;;;;;;9.85;3.90;;;14.70;99.90;;;;;;5489066;26;20443;-79
2024/04/08 07:26:17;;;;;;;9.98;3.90;;;14.70;99.90;;;;;;5489262;26;20071;-78
2024/04/08 07:28:44;;;;;;;9.20;3.60;;;14.70;99.90;;;;;;5490234;26;19991;-79
2024/04/08 07:31:10;;;;;;;8.48;3.63;;;14.80;99.90;;;;;;5489533;26;19994;-79
2024/04/08 07:33:35;;;;;;;6.60;3.35;;;14.80;99.90;;;;;;5490392;26;20026;-78
2024/04/08 07:36:01;;;;;;;4.97;3.40;;;14.90;99.90;;;;;;5489334;26;20067;-78
2024/04/08 07:38:28;;;;;;;6.40;3.53;;;14.90;99.90;;;;;;5490661;26;20005;-79
2024/04/08 07:40:54;;;;;;;6.63;3.63;;;15.00;99.90;;;;;;5488990;26;19994;-78
2024/04/08 07:43:20;;;;;;;7.68;3.72;;;15.00;99.90;;;;;;5490018;26;20005;-78
2024/04/08 07:45:46;;;;;;;6.90;3.78;;;15.10;99.90;;;;;;5489034;26;20012;-79
2024/04/08 07:48:11;;;;;;;7.95;3.92;;;15.10;99.90;;;;;;5490665;26;20009;-78
2024/04/08 07:50:38;;;;;;;7.05;3.60;;;15.10;99.90;;;;;;5488780;26;20009;-78
2024/04/08 07:53:08;;;;;;;8.90;3.78;;;15.10;99.90;;;;;;5489499;26;20010;-78
2024/04/08 07:55:33;;;;;;;7.78;3.80;;;15.20;99.90;;;;;;5489019;26;19994;-76
2024/04/08 07:58:00;;;;;;;8.50;4.15;;;15.30;99.90;;;;;;5489153;26;20013;-76
2024/04/08 08:00:26;;;;;;;9.60;4.13;;;15.40;99.90;;;;;;5489614;26;20034;-76
2024/04/08 08:02:52;;;;;;;6.07;3.58;;;15.40;99.90;;;;;;5489370;26;19994;-76
2024/04/08 08:05:17;;;;;;;8.27;4.28;;;15.50;99.90;;;;;;5489943;26;20009;-76
2024/04/08 08:07:43;;;;;;;8.02;4.18;;;15.60;99.90;;;;;;5488731;26;19998;-76
2024/04/08 08:10:09;;;;;;;7.30;3.70;;;15.60;99.90;;;;;;5490308;26;20006;-76
2024/04/08 08:12:34;;;;;;;5.95;3.97;;;15.60;99.90;;;;;;5488576;26;20046;-76
2024/04/08 08:15:00;;;;;;;7.78;3.92;;;15.70;99.90;;;;;;5490171;26;20006;-76
2024/04/08 08:17:26;;;;;;;7.32;3.72;;;15.70;99.90;;;;;;5488198;26;19991;-77
2024/04/08 08:19:52;;;;;;;8.18;4.22;;;15.80;99.90;;;;;;5489248;26;20311;-77
2024/04/08 08:22:18;;;;;;;8.85;3.92;;;15.80;99.90;;;;;;5488918;26;20269;-77
2024/04/08 08:24:47;;;;;;;8.80;4.53;;;15.90;99.90;;;;;;5490254;26;20253;-77
2024/04/08 08:27:12;;;;;;;8.35;4.22;;;16.00;99.90;;;;;;5488533;26;20467;-77
2024/04/08 08:29:41;;;;;;;9.23;3.72;;;16.10;99.90;;;;;;5490069;26;19998;-77
2024/04/08 08:32:07;;;;;;;8.20;3.90;;;16.20;99.90;;;;;;5488202;26;20009;-77
2024/04/08 08:34:32;;;;;;;5.45;3.33;;;16.30;99.90;;;;;;5489183;26;19994;-77
2024/04/08 08:36:58;;;;;;;6.78;3.03;;;16.40;99.90;;;;;;5487302;26;20474;-76
2024/04/08 08:39:23;;;;;;;7.60;3.58;;;16.50;99.90;;;;;;5489330;26;19994;-76
2024/04/08 08:41:51;;;;;;;6.80;2.92;;;16.50;99.90;;;;;;5488984;26;20006;-76
2024/04/08 08:44:20;;;;;;;9.90;3.25;;;16.50;99.90;;;;;;5488978;26;20009;-76
2024/04/08 08:46:46;;;;;;;8.05;3.67;;;16.50;99.90;;;;;;5488284;26;20002;-76
2024/04/08 08:49:15;;;;;;;7.35;3.25;;;16.50;99.90;;;;;;5488786;26;20013;-77
2024/04/08 08:51:40;;;;;;;8.77;3.40;;;16.60;99.90;;;;;;5488129;26;20009;-77
2024/04/08 08:54:07;;;;;;;7.60;2.95;;;16.60;99.90;;;;;;5488980;26;19995;-77
2024/04/08 08:56:33;;;;;;;7.22;3.03;;;16.60;99.90;;;;;;5488995;26;19998;-76
2024/04/08 08:59:00;;;;;;;7.82;2.65;;;16.60;99.90;;;;;;5488702;26;19998;-75
2024/04/08 09:01:30;;;;;;;5.20;2.60;;;16.60;99.90;;;;;;5488941;26;20065;-77
2024/04/08 09:03:56;;;;;;;7.13;3.17;;;16.60;99.90;;;;;;5488439;26;20062;-77
2024/04/08 09:06:22;;;;;;;6.43;3.03;;;16.60;99.90;;;;;;5488577;26;20474;-77
2024/04/08 09:08:48;;;;;;;7.57;3.30;;;16.50;99.90;;;;;;5487098;26;19998;-76
2024/04/08 09:11:15;;;;;;;6.00;3.10;;;16.50;99.90;;;;;;5488051;26;20318;-77
2024/04/08 09:13:41;;;;;;;6.22;3.28;;;16.40;99.90;;;;;;5489072;26;20024;-77
2024/04/08 09:16:08;;;;;;;6.25;2.78;;;16.50;99.90;;;;;;5488269;26;20530;-76
2024/04/08 09:18:34;;;;;;;6.85;3.10;;;16.60;99.90;;;;;;5488427;26;20393;-76
2024/04/08 09:21:00;;;;;;;5.90;2.80;;;16.70;99.90;;;;;;5487485;26;20062;-76
2024/04/08 09:23:26;;;;;;;9.00;3.55;;;16.80;99.90;;;;;;5488803;26;20009;-76
2024/04/08 09:25:52;;;;;;;6.32;3.25;;;16.90;99.90;;;;;;5487880;26;20499;-77
2024/04/08 09:28:17;;;;;;;9.32;3.35;;;17.00;99.90;;;;;;5488914;26;20002;-77
2024/04/08 09:30:44;;;;;;;7.93;3.55;;;17.10;99.90;;;;;;5487022;26;20039;-76
2024/04/08 09:33:12;;;;;;;7.55;3.03;;;17.10;99.90;;;;;;5488594;26;20001;-76
2024/04/08 09:35:40;;;;;;;7.00;3.60;;;17.20;99.90;;;;;;5485897;26;20391;-76
2024/04/08 09:38:09;;;;;;;11.15;5.90;;;17.20;99.90;;;;;;5488739;26;20009;-76
2024/04/08 09:40:35;;;;;;;7.63;5.45;;;17.30;99.90;;;;;;5487956;26;19998;-76
2024/04/08 09:43:06;;;;;;;12.50;5.80;;;17.30;99.90;;;;;;5488369;26;20009;-77
2024/04/08 09:45:33;;;;;;;11.43;5.28;;;17.30;99.90;;;;;;5488358;26;19998;-76
2024/04/08 09:47:59;;;;;;;12.50;7.32;;;17.40;99.90;;;;;;5487415;26;20357;-76
2024/04/08 09:50:27;;;;;;;13.00;7.22;;;17.40;99.90;;;;;;5487777;26;20078;-76
2024/04/08 09:52:53;;;;;;;11.95;6.03;;;17.40;99.90;;;;;;5487675;26;20092;-76
2024/04/08 09:55:24;;;;;;;11.95;6.05;;;17.50;99.90;;;;;;5488164;26;20467;-76
2024/04/08 09:57:51;;;;;;;;;;;17.60;99.90;;;;;;5488492;26;20005;-76
2024/04/08 10:00:18;;;;;;;11.55;6.68;;;17.70;99.90;;;;;;5487851;26;20437;-76
2024/04/08 10:02:45;;;;;;;10.50;7.25;;;17.80;99.90;;;;;;5487050;26;20065;-77
2024/04/08 10:05:15;;;;;;;13.65;7.47;;;17.90;99.90;;;;;;5488296;26;20001;-76
2024/04/08 10:07:41;;;;;;;;;;;17.90;99.90;;;;;;5487999;26;20006;-76
2024/04/08 10:10:10;;;;;;;12.23;7.22;;;17.90;99.90;;;;;;5487741;26;19983;-76
2024/04/08 10:12:36;;;;;;;12.82;6.57;;;17.90;99.90;;;;;;5487246;26;19994;-76
2024/04/08 10:15:13;;;;;;;13.38;6.88;;;17.90;99.90;;;;;;5487576;26;20456;-76
2024/04/08 10:17:46;;;;;;;10.95;7.45;;;18.00;99.90;;;;;;5486917;26;19994;-76
2024/04/08 10:20:13;;;;;;;10.95;6.60;;;18.10;99.90;;;;;;5488119;26;19994;-76
2024/04/08 10:22:39;;;;;;;12.55;8.55;;;18.20;99.90;;;;;;5486471;26;20009;-76
2024/04/08 10:25:26;;;;;;;11.73;8.60;;;18.20;99.90;;;;;;5486597;26;20067;-76
2024/04/08 10:28:05;;;;;;;8.55;7.65;;;18.30;99.90;;;;;;5486687;26;20006;-76
2024/04/08 10:30:34;;;;;;;10.93;8.55;;;18.40;99.90;;;;;;5487935;26;19998;-76
2024/04/08 10:33:00;;;;;;;13.32;9.85;;;18.50;99.90;;;;;;5486416;26;20018;-76
2024/04/08 10:35:26;;;;;;;13.10;9.80;;;18.60;99.90;;;;;;5488034;26;20345;-76
2024/04/08 10:37:52;;;;;;;11.98;9.48;;;18.70;99.90;;;;;;5486120;26;19998;-76
2024/04/08 10:40:20;;;;;;;12.77;8.95;;;18.80;99.90;;;;;;5487926;26;20009;-76
2024/04/08 10:42:47;;;;;;;10.88;7.63;;;18.80;99.90;;;;;;5488019;26;20008;-76
2024/04/08 10:45:12;;;;;;;10.20;7.40;;;18.90;99.90;;;;;;5490878;26;20349;-76
2024/04/08 10:47:38;;;;;;;11.25;7.25;;;18.90;99.90;;;;;;5489900;26;20043;-76
2024/04/08 10:50:04;;;;;;;11.32;7.45;;;19.00;99.90;;;;;;5492051;26;19997;-76
2024/04/08 10:52:36;;;;;;;12.25;7.65;;;19.00;99.90;;;;;;5488119;26;19994;-76
2024/04/08 10:55:01;;;;;;;10.93;7.25;;;19.10;99.90;;;;;;5489013;26;20005;-76
2024/04/08 10:57:27;;;;;;;10.85;6.18;;;19.10;99.90;;;;;;5490244;26;19998;-76
2024/04/08 10:59:53;;;;;;;10.52;5.63;;;19.10;99.90;;;;;;5491302;26;20026;-76
2024/04/08 11:02:19;;;;;;;10.70;6.28;;;19.20;99.90;;;;;;5490049;26;19994;-76
2024/04/08 11:04:45;;;;;;;7.13;5.43;;;19.20;99.90;;;;;;5490903;26;20466;-76
2024/04/08 11:07:11;;;;;;;8.32;5.45;;;19.30;99.90;;;;;;5489600;26;20005;-76
2024/04/08 11:09:37;;;;;;;8.48;5.55;;;19.40;99.90;;;;;;5490989;26;20008;-76
2024/04/08 11:12:06;;;;;;;8.45;5.75;;;19.40;99.90;;;;;;5489834;26;19998;-76
2024/04/08 11:14:32;;;;;;;8.13;5.38;;;19.40;99.90;;;;;;5490169;26;19996;-76
2024/04/08 11:17:01;;;;;;;8.57;4.47;;;19.40;99.90;;;;;;5490440;26;20018;-76
2024/04/08 11:19:31;;;;;;;8.45;4.50;;;19.30;99.90;;;;;;5490545;26;20009;-76
2024/04/08 11:21:57;;;;;;;7.20;4.37;;;19.30;99.90;;;;;;5490403;26;20071;-76
2024/04/08 11:24:24;;;;;;;5.57;4.57;;;19.30;99.90;;;;;;5490098;26;20006;-76
2024/04/08 11:26:49;;;;;;;7.78;4.22;;;19.40;99.90;;;;;;5490304;26;20009;-76
2024/04/08 11:29:15;;;;;;;7.90;4.72;;;19.40;99.90;;;;;;5490064;26;19994;-76
2024/04/08 11:31:43;;;;;;;8.63;4.35;;;19.40;99.90;;;;;;5490270;26;20339;-76
2024/04/08 11:34:08;;;;;;;7.18;4.65;;;19.40;99.90;;;;;;5490401;26;19994;-76
2024/04/08 11:36:35;;;;;;;9.30;5.47;;;19.30;99.90;;;;;;5490113;26;20006;-76
2024/04/08 11:39:00;;;;;;;6.70;4.55;;;19.30;99.90;;;;;;5490107;26;19994;-76
2024/04/08 11:41:26;;;;;;;7.03;4.60;;;19.30;99.90;;;;;;5490610;26;20332;-76
2024/04/08 11:43:51;;;;;;;7.95;4.32;;;19.30;99.90;;;;;;5488240;26;20005;-76
2024/04/08 11:46:17;;;;;;;10.82;4.78;;;19.30;99.90;;;;;;5488479;26;20005;-76
2024/04/08 11:48:45;;;;;;;9.63;4.97;;;19.20;99.90;;;;;;5490276;26;20438;-76
2024/04/08 11:51:11;;;;;;;8.18;5.53;;;19.10;99.90;;;;;;5489761;26;19998;-76
2024/04/08 11:53:36;;;;;;;10.88;4.55;;;19.10;99.90;;;;;;5489456;26;20030;-76
2024/04/08 11:56:02;;;;;;;6.80;4.30;;;19.00;99.90;;;;;;5490126;26;19994;-76
2024/04/08 11:58:28;;;;;;;7.90;5.15;;;18.90;99.90;;;;;;5489373;26;19998;-76
2024/04/08 12:00:54;;;;;;;8.98;5.95;;;18.90;99.90;;;;;;5490007;26;20046;-76
2024/04/08 12:03:20;;;;;;;10.52;6.93;;;18.90;99.90;;;;;;5490011;26;20316;-76
2024/04/08 12:05:45;;;;;;;9.40;6.55;;;18.90;99.90;;;;;;5489407;26;19994;-76
2024/04/08 12:08:11;;;;;;;9.98;6.07;;;18.90;99.90;;;;;;5489355;26;20002;-76
2024/04/08 12:10:38;;;;;;;7.90;4.82;;;19.00;99.90;;;;;;5489803;26;20074;-76
2024/04/08 12:13:18;;;;;;;10.32;5.65;;;19.10;99.90;;;;;;5488754;26;20049;-76
2024/04/08 12:15:44;;;;;;;10.90;5.50;;;19.20;99.90;;;;;;5489702;26;20574;-76
2024/04/08 12:18:10;;;;;;;7.95;5.13;;;19.20;99.90;;;;;;5489303;26;20352;-76
2024/04/08 12:20:36;;;;;;;7.65;4.45;;;19.20;99.90;;;;;;5489392;26;20006;-76
2024/04/08 12:23:02;;;;;;;8.70;5.50;;;19.10;99.90;;;;;;5488921;26;20452;-76
2024/04/08 12:25:28;;;;;;;7.53;5.25;;;19.10;99.90;;;;;;5489522;26;20002;-76
2024/04/08 12:27:54;;;;;;;7.60;5.60;;;19.10;99.90;;;;;;5489659;26;20015;-76
2024/04/08 12:30:19;;;;;;;9.75;6.38;;;19.00;99.90;;;;;;5489316;26;19994;-76
2024/04/08 12:32:45;;;;;;;9.18;5.07;;;19.00;99.90;;;;;;5488653;26;19994;-76
2024/04/08 12:35:11;;;;;;;8.07;5.63;;;19.00;99.90;;;;;;5489025;26;20001;-76
2024/04/08 12:37:37;;;;;;;7.45;5.47;;;19.00;99.90;;;;;;5488809;26;20009;-76
2024/04/08 12:40:04;;;;;;;6.28;4.45;;;19.00;99.90;;;;;;5489241;26;19998;-76
2024/04/08 12:42:29;;;;;;;8.10;4.88;;;19.00;99.90;;;;;;5488207;26;20002;-76